Time;durP1;ratioP1;P1;durP2;ratioP2;P2;SDS_P1;SDS_P2;PMS_P1;PMS_P2;Temp;Humidity;BMP_temperature;BMP_pressure;BME280_temperature;BME280_humidity;BME280_pressure;Samples;Min_cycle;Max_cycle;Signal;HPM_P1;HPM_P2
2021/06/09 00:01:28;;;;;;;32.47;18.50;;;;;;;29.45;62.82;100788.03;4923759;28;65945;-43
2021/06/09 00:04:00;;;;;;;26.33;18.00;;;;;;;29.64;63.65;100808.78;4923078;28;70810;-37
2021/06/09 00:06:31;;;;;;;24.70;17.95;;;;;;;29.74;63.06;100828.09;4924366;28;65069;-37
2021/06/09 00:09:06;;;;;;;32.35;17.92;;;;;;;29.80;64.00;100834.53;4919159;28;70080;-37
2021/06/09 00:11:38;;;;;;;29.58;18.55;;;;;;;29.79;64.16;100822.88;4920103;28;65969;-37
2021/06/09 00:14:10;;;;;;;31.30;19.05;;;;;;;29.83;64.20;100824.09;4921347;28;69240;-37
2021/06/09 00:16:42;;;;;;;28.60;18.70;;;;;;;29.90;64.24;100836.78;4924338;28;65964;-37
2021/06/09 00:19:14;;;;;;;28.63;17.98;;;;;;;29.76;63.91;100804.41;4920092;28;69916;-37
2021/06/09 00:21:47;;;;;;;27.40;18.70;;;;;;;29.96;64.27;100836.75;4921385;28;66208;-38
2021/06/09 00:24:20;;;;;;;22.88;17.90;;;;;;;29.99;64.48;100835.50;4923861;28;70030;-38
2021/06/09 00:26:53;;;;;;;28.83;18.75;;;;;;;30.01;65.13;100838.81;4923470;28;65967;-39
2021/06/09 00:29:25;;;;;;;25.00;18.48;;;;;;;30.05;64.93;100845.44;4906777;28;69477;-38
2021/06/09 00:31:57;;;;;;;27.35;18.60;;;;;;;30.02;64.15;100825.06;4919264;28;66698;-37
2021/06/09 00:34:29;;;;;;;23.98;18.55;;;;;;;30.10;64.56;100842.09;4922838;28;69775;-37
2021/06/09 00:37:05;;;;;;;29.33;18.08;;;;;;;30.12;65.44;100846.25;4919437;28;65424;-38
2021/06/09 00:39:42;;;;;;;24.63;17.23;;;;;;;29.95;64.96;100818.03;4915761;28;69962;-38
2021/06/09 00:42:23;;;;;;;28.58;17.10;;;;;;;30.14;65.36;100848.72;4921007;28;65056;-36
2021/06/09 00:44:56;;;;;;;22.57;16.17;;;;;;;30.20;64.57;100859.53;4920905;28;70382;-38
2021/06/09 00:47:29;;;;;;;25.20;16.13;;;;;;;30.24;64.70;100866.19;4919331;28;65711;-37
2021/06/09 00:50:01;;;;;;;17.48;14.73;;;;;;;30.27;64.42;100879.28;4915665;28;69075;-38
2021/06/09 00:52:34;;;;;;;20.70;15.13;;;;;;;30.30;64.36;100879.91;4921391;28;65984;-38
2021/06/09 00:55:07;;;;;;;15.43;13.85;;;;;;;30.34;64.29;100881.13;4900058;28;70206;-38
2021/06/09 00:57:42;;;;;;;19.00;14.73;;;;;;;30.14;63.88;100852.25;4916439;28;65289;-37
2021/06/09 01:00:19;;;;;;;16.23;13.90;;;;;;;30.38;64.75;100888.59;4919577;28;70209;-35
2021/06/09 01:02:52;;;;;;;22.52;14.43;;;;;;;30.40;64.81;100889.22;4917939;28;65768;-36
2021/06/09 01:05:24;;;;;;;24.83;14.57;;;;;;;30.44;65.15;100892.31;4873380;28;68387;-36
2021/06/09 01:08:01;;;;;;;17.10;14.13;;;;;;;30.28;65.58;100856.59;4921084;28;66275;-36
2021/06/09 01:10:35;;;;;;;26.48;14.00;;;;;;;30.50;65.56;100900.38;4922327;28;70215;-37
2021/06/09 01:13:08;;;;;;;22.85;14.27;;;;;;;30.49;65.17;100892.50;4888894;28;66082;-37
2021/06/09 01:15:42;;;;;;;20.92;14.13;;;;;;;30.54;65.66;100903.50;4901510;28;70238;-37
2021/06/09 01:18:17;;;;;;;18.58;13.60;;;;;;;30.59;65.04;100902.84;4918055;28;66387;-37
2021/06/09 01:20:51;;;;;;;20.38;13.65;;;;;;;30.48;65.54;100888.13;4922858;28;70563;-36
2021/06/09 01:23:25;;;;;;;17.83;14.35;;;;;;;30.61;65.14;100898.84;4918969;28;66539;-36
2021/06/09 01:26:02;;;;;;;20.70;13.65;;;;;;;30.61;65.69;100900.75;4920605;28;70389;-36
2021/06/09 01:28:37;;;;;;;18.80;12.43;;;;;;;30.52;65.86;100883.94;4919575;28;66536;-37
2021/06/09 01:31:12;;;;;;;15.45;12.60;;;;;;;30.58;65.94;100887.66;4920757;28;70325;-40
2021/06/09 01:33:49;;;;;;;20.15;12.57;;;;;;;30.69;65.68;100912.13;4921109;28;65876;-37
2021/06/09 01:36:23;;;;;;;17.65;12.38;;;;;;;30.70;65.37;100919.22;4920961;28;69011;-39
2021/06/09 01:38:56;;;;;;;15.70;12.52;;;;;;;30.79;64.96;100925.22;4917681;28;66634;-37
2021/06/09 01:41:28;;;;;;;13.65;11.15;;;;;;;30.82;65.51;100937.53;4921193;28;69996;-38
2021/06/09 01:44:01;;;;;;;16.00;12.15;;;;;;;30.87;65.61;100934.97;4921727;28;65352;-40
2021/06/09 01:46:35;;;;;;;20.20;11.43;;;;;;;30.90;65.82;100934.56;4917558;28;70336;-37
2021/06/09 01:49:13;;;;;;;13.98;11.07;;;;;;;30.95;65.45;100926.56;4905204;28;66144;-37
2021/06/09 01:51:47;;;;;;;12.23;10.95;;;;;;;30.92;65.45;100918.88;4922351;28;70783;-38
2021/06/09 01:54:19;;;;;;;16.30;11.85;;;;;;;30.84;64.92;100903.75;4918806;28;65197;-40
2021/06/09 01:56:55;;;;;;;14.60;10.73;;;;;;;31.00;65.62;100926.75;4911829;28;71510;-39
2021/06/09 01:59:28;;;;;;;11.40;10.45;;;;;;;31.00;65.07;100929.44;4918744;28;65535;-38
2021/06/09 02:02:02;;;;;;;13.02;11.75;;;;;;;30.88;65.57;100896.00;4920191;28;69020;-37
2021/06/09 02:04:35;;;;;;;18.60;11.40;;;;;;;31.06;65.64;100925.03;4919104;28;66902;-38
2021/06/09 02:07:08;;;;;;;15.18;11.85;;;;;;;31.09;65.09;100916.47;4918913;28;70007;-37
2021/06/09 02:09:41;;;;;;;17.30;11.35;;;;;;;31.09;66.02;100920.03;4918399;28;66009;-37
2021/06/09 02:12:14;;;;;;;14.40;11.82;;;;;;;31.07;65.78;100913.16;4918899;28;68698;-38
2021/06/09 02:14:50;;;;;;;15.38;11.95;;;;;;;30.98;65.68;100890.94;4919453;28;66594;-38
2021/06/09 02:17:23;;;;;;;13.60;11.48;;;;;;;31.12;65.82;100911.44;4900633;28;68193;-39
2021/06/09 02:19:56;;;;;;;12.85;10.48;;;;;;;31.14;66.27;100909.31;4920209;28;65347;-36
2021/06/09 02:22:30;;;;;;;13.55;12.18;;;;;;;31.09;65.22;100901.06;4917245;28;70007;-38
2021/06/09 02:25:06;;;;;;;17.63;12.88;;;;;;;31.16;65.76;100909.13;4919950;28;65466;-35
2021/06/09 02:27:39;;;;;;;20.08;12.88;;;;;;;31.15;66.19;100913.72;4918306;28;69512;-35
2021/06/09 02:30:13;;;;;;;15.68;12.57;;;;;;;31.20;66.10;100917.63;4914903;28;66626;-36
2021/06/09 02:32:47;;;;;;;19.77;13.70;;;;;;;31.07;66.14;100886.91;4886240;28;69946;-36
2021/06/09 02:35:21;;;;;;;15.52;14.02;;;;;;;31.19;66.05;100916.81;4919024;28;66406;-40
2021/06/09 02:37:55;;;;;;;16.70;13.93;;;;;;;31.24;66.47;100913.44;4920112;28;70398;-37
2021/06/09 02:40:28;;;;;;;16.48;14.73;;;;;;;31.22;66.03;100907.41;4915820;28;65463;-36
2021/06/09 02:43:05;;;;;;;16.52;15.02;;;;;;;31.29;65.87;100910.91;4918018;28;70141;-37
2021/06/09 02:45:39;;;;;;;18.27;16.60;;;;;;;31.27;66.19;100907.56;4915150;28;66183;-35
2021/06/09 02:48:15;;;;;;;23.25;17.80;;;;;;;31.32;65.61;100910.44;4905473;28;69431;-36
2021/06/09 02:50:48;;;;;;;20.02;16.70;;;;;;;31.28;65.96;100896.50;4930880;28;66011;-37
2021/06/09 02:53:28;;;;;;;21.63;16.48;;;;;;;31.37;65.53;100902.47;4897562;28;69246;-39
2021/06/09 02:56:12;;;;;;;22.00;18.95;;;;;;;31.35;66.43;100910.81;4895893;28;65822;-38
2021/06/09 02:58:59;;;;;;;26.88;19.75;;;;;;;31.37;66.05;100891.63;4913333;28;69794;-37
2021/06/09 03:01:38;;;;;;;26.00;19.90;;;;;;;31.41;65.81;100908.31;4917661;28;66516;-37
2021/06/09 03:04:41;;;;;;;25.63;21.17;;;;;;;31.37;65.90;100902.47;4932064;28;70134;-38
2021/06/09 03:07:20;;;;;;;25.95;22.02;;;;;;;31.42;65.44;100894.50;4919540;28;64887;-36
2021/06/09 03:10:17;;;;;;;27.52;22.25;;;;;;;31.43;65.68;100898.91;4913867;28;69383;-37
2021/06/09 03:12:55;;;;;;;30.60;22.98;;;;;;;31.43;65.59;100885.34;4918003;28;65317;-37
2021/06/09 03:15:40;;;;;;;26.88;22.42;;;;;;;31.42;65.94;100883.66;4903321;28;69336;-36
2021/06/09 03:18:49;;;;;;;29.33;23.00;;;;;;;31.29;65.60;100846.66;4917533;28;65363;-37
2021/06/09 03:21:53;;;;;;;31.00;20.45;;;;;;;31.31;64.69;100849.13;4918313;28;69292;-39
2021/06/09 03:24:56;;;;;;;27.52;24.88;;;;;;;31.45;65.70;100866.94;4918736;28;65241;-38
2021/06/09 03:27:52;;;;;;;33.65;24.75;;;;;;;31.45;65.24;100869.66;4915252;28;68861;-41
2021/06/09 03:30:29;;;;;;;31.35;25.48;;;;;;;31.42;64.82;100843.00;4916382;28;66164;-38
2021/06/09 03:33:14;;;;;;;25.25;22.55;;;;;;;31.41;65.30;100857.63;4916108;28;69991;-39
2021/06/09 03:35:55;;;;;;;25.52;22.95;;;;;;;31.41;65.17;100844.06;4918752;28;66505;-39
2021/06/09 03:39:12;;;;;;;25.20;22.75;;;;;;;31.50;65.27;100867.09;4917172;28;70205;-40
2021/06/09 03:41:52;;;;;;;27.13;21.15;;;;;;;31.59;65.79;100857.66;4904317;28;66368;-35
2021/06/09 03:44:39;;;;;;;23.95;20.50;;;;;;;31.52;66.06;100846.03;4914766;28;70092;-35
2021/06/09 03:47:13;;;;;;;21.40;19.13;;;;;;;31.58;64.04;100845.13;4915457;28;65324;-34
2021/06/09 03:49:48;;;;;;;19.73;17.75;;;;;;;31.58;61.45;100853.25;4898467;28;69853;-34
2021/06/09 03:52:21;;;;;;;19.50;15.95;;;;;;;31.46;59.79;100851.53;4917019;28;66100;-35
2021/06/09 03:54:58;;;;;;;25.65;14.80;;;;;;;31.35;58.23;100844.94;4917504;28;69703;-34
2021/06/09 03:57:33;;;;;;;18.30;13.93;;;;;;;30.98;56.35;100812.38;4915154;28;66179;-35
2021/06/09 04:00:07;;;;;;;23.35;13.68;;;;;;;31.07;55.62;100848.16;4878420;28;69320;-34
2021/06/09 04:02:43;;;;;;;13.43;12.23;;;;;;;30.98;53.79;100852.16;4918658;28;65784;-35
2021/06/09 04:05:17;;;;;;;11.13;10.32;;;;;;;30.80;53.40;100840.22;4916767;28;69470;-34
2021/06/09 04:07:51;;;;;;;16.13;10.48;;;;;;;30.75;53.34;100828.38;4903475;28;66585;-34
2021/06/09 04:10:25;;;;;;;11.20;10.05;;;;;;;30.61;52.95;100808.69;4914284;28;69821;-33
2021/06/09 04:12:59;;;;;;;12.98;9.25;;;;;;;30.55;51.94;100801.47;4916765;28;65910;-34
2021/06/09 04:15:35;;;;;;;9.07;8.38;;;;;;;30.53;50.51;100804.38;4919103;28;70437;-34
2021/06/09 04:18:10;;;;;;;9.98;9.07;;;;;;;30.46;50.06;100788.19;4917741;28;65817;-34
2021/06/09 04:20:44;;;;;;;12.32;8.32;;;;;;;30.42;50.10;100796.97;4901018;28;69847;-36
2021/06/09 04:23:17;;;;;;;9.15;7.22;;;;;;;30.37;49.69;100788.66;4921272;28;65166;-34
2021/06/09 04:25:49;;;;;;;7.75;7.10;;;;;;;30.26;49.12;100777.50;4902507;28;70599;-34
2021/06/09 04:28:21;;;;;;;;;;;;;;;30.00;47.77;100777.63;4915625;28;65983;-34
2021/06/09 04:30:53;;;;;;;7.22;6.25;;;;;;;30.18;48.16;100775.03;4916699;28;69523;-34
2021/06/09 04:33:32;;;;;;;6.55;6.10;;;;;;;30.20;47.43;100774.81;4916898;28;66495;-36
2021/06/09 04:36:05;;;;;;;6.60;6.03;;;;;;;30.16;47.47;100766.31;4920934;28;69909;-35
2021/06/09 04:38:38;;;;;;;7.47;6.03;;;;;;;30.16;47.71;100765.47;4920187;28;66212;-34
2021/06/09 04:41:10;;;;;;;8.25;6.00;;;;;;;30.15;47.93;100763.84;4922462;28;70344;-38
2021/06/09 04:43:42;;;;;;;8.75;5.30;;;;;;;30.14;47.09;100762.97;4919441;28;65287;-38
2021/06/09 04:46:23;;;;;;;5.88;5.28;;;;;;;29.97;45.73;100735.63;4918919;28;70348;-38
2021/06/09 04:49:01;;;;;;;7.68;4.65;;;;;;;29.96;45.67;100733.16;4901026;28;66215;-37
2021/06/09 04:51:39;;;;;;;5.10;4.70;;;;;;;30.00;44.51;100739.78;4919618;28;69273;-35
2021/06/09 04:54:11;;;;;;;6.07;4.38;;;;;;;30.10;45.40;100750.13;4920744;28;66154;-38
2021/06/09 04:56:44;;;;;;;4.47;4.07;;;;;;;30.14;45.26;100762.16;4919199;28;69559;-36
2021/06/09 04:59:17;;;;;;;4.90;4.50;;;;;;;30.12;45.30;100753.44;4922504;28;65525;-35
2021/06/09 05:01:50;;;;;;;4.07;3.67;;;;;;;30.10;45.10;100761.78;4918760;28;70220;-34
2021/06/09 05:04:23;;;;;;;4.10;3.80;;;;;;;30.06;44.25;100763.25;4921318;28;66090;-36
2021/06/09 05:06:56;;;;;;;4.40;4.07;;;;;;;30.05;45.16;100758.88;4918464;28;69911;-36
2021/06/09 05:09:37;;;;;;;6.70;4.07;;;;;;;30.05;44.76;100764.28;4919392;28;66116;-35
2021/06/09 05:12:23;;;;;;;6.57;4.40;;;;;;;29.88;43.80;100733.41;4919191;28;70822;-35
2021/06/09 05:15:05;;;;;;;4.28;3.65;;;;;;;30.01;43.48;100757.69;4919394;28;65863;-36
2021/06/09 05:17:50;;;;;;;3.97;3.67;;;;;;;29.83;43.36;100718.66;4900829;28;69742;-36
2021/06/09 05:20:32;;;;;;;4.57;3.78;;;;;;;30.06;43.80;100744.31;4916597;28;65279;-35
2021/06/09 05:23:14;;;;;;;5.13;3.30;;;;;;;29.85;42.79;100710.34;4917705;28;70278;-34
2021/06/09 05:25:50;;;;;;;6.40;3.50;;;;;;;30.01;43.69;100736.03;4920702;28;65202;-37
2021/06/09 05:28:29;;;;;;;6.45;3.28;;;;;;;30.02;42.68;100737.69;4918667;28;70575;-33
2021/06/09 05:31:05;;;;;;;4.25;3.45;;;;;;;29.98;43.50;100726.47;4914106;28;65532;-34
2021/06/09 05:33:45;;;;;;;6.38;3.67;;;;;;;29.82;43.47;100698.06;4915933;28;67836;-34
2021/06/09 05:36:19;;;;;;;3.50;3.30;;;;;;;29.83;42.97;100697.00;4916210;28;65954;-33
2021/06/09 05:39:04;;;;;;;3.50;2.70;;;;;;;29.90;42.67;100712.41;4920258;28;69753;-34
2021/06/09 05:41:40;;;;;;;3.67;3.40;;;;;;;29.92;43.19;100712.97;4915960;28;65933;-37
2021/06/09 05:44:18;;;;;;;8.63;3.05;;;;;;;29.89;42.94;100714.25;4917155;28;69675;-35
2021/06/09 05:46:52;;;;;;;4.95;3.25;;;;;;;29.83;43.49;100712.41;4917826;28;66111;-38
2021/06/09 05:49:26;;;;;;;3.85;2.83;;;;;;;29.95;43.11;100720.66;4898242;28;70156;-35
2021/06/09 05:52:05;;;;;;;2.47;2.38;;;;;;;29.92;43.17;100704.88;4902982;28;65513;-35
2021/06/09 05:54:44;;;;;;;3.90;3.47;;;;;;;29.74;42.59;100679.41;4917139;28;69974;-35
2021/06/09 05:57:23;;;;;;;3.13;2.75;;;;;;;29.94;43.21;100702.78;4918219;28;66056;-35
2021/06/09 05:59:56;;;;;;;5.40;2.70;;;;;;;29.93;42.84;100693.03;4920342;28;70019;-34
2021/06/09 06:02:31;;;;;;;3.30;3.00;;;;;;;29.78;42.65;100677.94;4914226;28;65512;-34
2021/06/09 06:05:16;;;;;;;3.00;2.80;;;;;;;29.95;41.63;100688.19;4920795;28;69831;-34
2021/06/09 06:07:52;;;;;;;2.63;2.42;;;;;;;29.95;43.65;100678.25;4918861;28;65438;-34
2021/06/09 06:10:28;;;;;;;3.97;2.30;;;;;;;29.94;42.31;100676.56;4920284;28;70324;-34
2021/06/09 06:13:07;;;;;;;2.85;2.60;;;;;;;29.88;41.59;100668.50;4912039;28;65495;-34
2021/06/09 06:15:45;;;;;;;3.05;2.85;;;;;;;29.93;41.84;100674.91;4901896;28;69081;-34
2021/06/09 06:18:40;;;;;;;3.30;2.63;;;;;;;29.87;41.34;100658.75;4933680;28;65446;-34
2021/06/09 06:21:16;;;;;;;4.53;2.58;;;;;;;29.91;42.73;100657.25;4914655;28;69891;-34
2021/06/09 06:23:51;;;;;;;6.70;2.65;;;;;;;29.91;42.66;100655.38;4914886;28;66023;-35
2021/06/09 06:26:26;;;;;;;3.08;2.60;;;;;;;29.90;42.12;100642.09;4918809;28;69952;-36
2021/06/09 06:29:04;;;;;;;2.78;2.58;;;;;;;29.94;42.81;100637.88;4920062;28;66347;-34
2021/06/09 06:31:42;;;;;;;2.47;2.28;;;;;;;29.94;42.51;100621.66;4919332;28;70379;-34
2021/06/09 06:34:19;;;;;;;2.70;2.50;;;;;;;29.96;42.04;100608.75;4914010;28;65584;-33
2021/06/09 06:36:53;;;;;;;2.42;2.22;;;;;;;29.96;41.96;100622.28;4913215;28;70323;-33
2021/06/09 06:39:25;;;;;;;7.25;2.03;;;;;;;30.01;42.48;100617.03;4919036;28;65440;-34
2021/06/09 06:41:58;;;;;;;6.75;2.40;;;;;;;30.08;43.75;100625.91;4914454;28;69229;-34
2021/06/09 06:44:36;;;;;;;6.45;2.47;;;;;;;30.12;43.16;100610.91;4929569;28;66213;-34
2021/06/09 06:47:11;;;;;;;7.90;2.80;;;;;;;30.16;43.07;100614.81;4919619;28;70169;-34
2021/06/09 06:49:44;;;;;;;10.07;2.35;;;;;;;30.04;42.81;100581.44;4916171;28;66423;-33
2021/06/09 06:52:17;;;;;;;8.18;2.50;;;;;;;30.23;42.90;100593.97;4903455;28;69882;-35
2021/06/09 06:54:50;;;;;;;5.07;2.65;;;;;;;30.28;42.26;100590.59;4900860;28;65388;-35
2021/06/09 06:57:22;;;;;;;4.35;2.25;;;;;;;30.32;41.79;100596.41;4917805;28;69401;-38
2021/06/09 06:59:54;;;;;;;25.77;2.53;;;;;;;30.36;42.13;100597.59;4885300;28;65876;-34
2021/06/09 07:02:27;;;;;;;11.20;2.72;;;;;;;30.42;42.49;100592.13;4918044;28;69736;-33
2021/06/09 07:05:02;;;;;;;6.72;2.50;;;;;;;30.43;42.54;100582.94;4917446;28;66319;-35
2021/06/09 07:07:39;;;;;;;13.93;2.88;;;;;;;30.50;42.91;100589.09;4916902;28;69304;-35
2021/06/09 07:10:17;;;;;;;9.10;2.70;;;;;;;30.38;42.51;100568.44;4891683;28;66029;-35
2021/06/09 07:12:51;;;;;;;11.00;2.67;;;;;;;30.57;42.80;100589.03;4917652;28;69899;-36
2021/06/09 07:15:24;;;;;;;8.38;2.22;;;;;;;30.58;42.24;100584.44;4917151;28;66056;-36
2021/06/09 07:17:59;;;;;;;14.20;2.65;;;;;;;30.59;42.17;100586.94;4901396;28;70582;-41
2021/06/09 07:20:33;;;;;;;4.32;2.55;;;;;;;30.60;41.86;100583.19;4895970;28;66363;-36
2021/06/09 07:23:07;;;;;;;6.00;2.22;;;;;;;30.64;41.82;100573.53;4911544;28;70388;-35
2021/06/09 07:25:40;;;;;;;15.45;2.58;;;;;;;30.64;41.44;100562.72;4933492;28;66066;-38
2021/06/09 07:28:17;;;;;;;27.50;3.15;;;;;;;30.66;41.07;100566.03;4917570;28;69999;-36
2021/06/09 07:30:53;;;;;;;44.85;3.42;;;;;;;30.66;41.89;100560.59;4919176;28;65204;-34
2021/06/09 07:33:25;;;;;;;25.95;2.80;;;;;;;30.67;42.18;100556.88;4917698;28;69791;-39
2021/06/09 07:36:04;;;;;;;48.22;3.08;;;;;;;30.69;41.49;100538.50;4915032;28;66173;-37
2021/06/09 07:38:46;;;;;;;33.22;3.58;;;;;;;30.66;42.10;100528.13;4896337;28;68868;-35
2021/06/09 07:41:20;;;;;;;15.73;3.25;;;;;;;30.53;42.68;100494.97;4917283;28;65310;-35
2021/06/09 07:43:54;;;;;;;18.08;2.70;;;;;;;30.68;42.46;100514.38;4919192;28;69208;-36
2021/06/09 07:46:31;;;;;;;11.70;3.05;;;;;;;30.71;42.09;100509.31;4918921;28;66378;-35
2021/06/09 07:49:08;;;;;;;17.92;2.95;;;;;;;30.76;41.98;100510.50;4918072;28;69945;-36
2021/06/09 07:51:44;;;;;;;24.80;3.00;;;;;;;30.74;44.00;100499.91;4914851;28;65479;-38
2021/06/09 07:54:17;;;;;;;31.25;3.10;;;;;;;30.82;44.13;100505.03;4920164;28;70201;-36
2021/06/09 07:56:50;;;;;;;24.90;2.97;;;;;;;30.81;43.67;100503.38;4920141;28;66029;-36
2021/06/09 07:59:24;;;;;;;18.95;2.92;;;;;;;30.83;43.88;100500.44;4922836;28;70348;-35
2021/06/09 08:01:56;;;;;;;24.35;3.28;;;;;;;30.80;43.53;100496.31;4921741;28;67836;-40
2021/06/09 08:04:30;;;;;;;27.17;3.33;;;;;;;30.78;42.76;100492.16;4906602;28;70596;-36
2021/06/09 08:07:03;;;;;;;31.55;3.45;;;;;;;30.79;43.08;100494.63;4921809;28;65447;-36
2021/06/09 08:09:37;;;;;;;22.38;2.80;;;;;;;30.80;42.75;100504.44;4921403;28;69241;-39
2021/06/09 08:12:18;;;;;;;8.25;2.53;;;;;;;30.80;42.55;100507.16;4921097;28;65245;-36
2021/06/09 08:14:54;;;;;;;7.20;2.60;;;;;;;30.81;42.47;100502.56;4921390;28;70710;-37
2021/06/09 08:17:27;;;;;;;12.13;3.00;;;;;;;30.77;42.20;100506.75;4937254;28;66153;-36
2021/06/09 08:20:00;;;;;;;14.05;2.83;;;;;;;30.82;42.40;100498.81;4906446;28;69319;-37
2021/06/09 08:22:34;;;;;;;29.23;3.50;;;;;;;30.78;42.50;100486.72;4920281;28;66241;-38
2021/06/09 08:25:09;;;;;;;28.00;3.38;;;;;;;30.81;43.29;100497.13;4918556;28;69663;-37
2021/06/09 08:27:42;;;;;;;28.65;3.05;;;;;;;30.84;43.92;100493.97;4904231;28;66176;-37
2021/06/09 08:30:15;;;;;;;17.42;2.83;;;;;;;30.87;43.34;100490.78;4922992;28;68791;-38
2021/06/09 08:32:49;;;;;;;9.25;3.10;;;;;;;30.83;43.19;100484.19;4921241;28;66033;-36
2021/06/09 08:35:25;;;;;;;29.13;3.30;;;;;;;30.88;43.59;100497.88;4937196;28;68371;-39
2021/06/09 08:37:58;;;;;;;15.40;3.28;;;;;;;30.91;42.91;100497.41;4921557;28;65967;-37
2021/06/09 08:40:35;;;;;;;25.60;3.78;;;;;;;30.93;43.20;100503.44;4922250;28;69757;-36
2021/06/09 08:43:09;;;;;;;19.83;3.10;;;;;;;30.87;42.73;100496.22;4921438;28;65529;-39
2021/06/09 08:45:44;;;;;;;12.45;3.10;;;;;;;30.94;44.17;100505.09;4923042;28;70486;-45
2021/06/09 08:48:18;;;;;;;16.63;3.50;;;;;;;30.85;44.39;100482.91;4920606;28;66045;-38
2021/06/09 08:50:51;;;;;;;14.27;3.63;;;;;;;30.96;44.23;100500.28;4922107;28;69230;-37
2021/06/09 08:53:25;;;;;;;7.68;3.38;;;;;;;31.00;46.34;100501.44;4903585;28;65497;-36
2021/06/09 08:55:58;;;;;;;11.38;3.78;;;;;;;31.11;49.82;100506.06;4918295;28;70109;-38
2021/06/09 08:58:31;;;;;;;4.50;3.63;;;;;;;31.28;51.19;100494.59;4903095;28;67086;-38
2021/06/09 09:01:04;;;;;;;;;;;;;;;31.20;55.05;100506.56;4920056;28;70071;-37
2021/06/09 09:03:37;;;;;;;11.68;3.88;;;;;;;31.38;54.30;100482.16;4935425;28;65374;-38
2021/06/09 09:06:09;;;;;;;4.18;3.65;;;;;;;31.60;53.93;100506.00;4900614;28;70793;-38
2021/06/09 09:08:43;;;;;;;6.47;4.47;;;;;;;31.76;56.06;100515.28;4921166;28;66173;-38
2021/06/09 09:11:15;;;;;;;5.68;3.90;;;;;;;31.81;54.68;100535.22;4921120;28;70000;-37
2021/06/09 09:13:48;;;;;;;8.70;4.00;;;;;;;31.91;55.35;100553.69;4921788;28;65370;-38
2021/06/09 09:16:19;;;;;;;10.60;4.07;;;;;;;31.96;55.98;100559.22;4920836;28;69950;-37
2021/06/09 09:19:01;;;;;;;8.10;4.20;;;;;;;32.03;56.61;100570.78;4922630;28;65994;-38
2021/06/09 09:21:35;;;;;;;13.48;4.40;;;;;;;31.90;56.55;100543.88;4921580;28;69147;-37
2021/06/09 09:24:13;;;;;;;15.23;3.90;;;;;;;32.09;56.19;100551.91;4921489;28;66109;-37
2021/06/09 09:26:50;;;;;;;19.60;3.60;;;;;;;32.11;56.42;100549.78;4932469;28;69075;-36
2021/06/09 09:29:23;;;;;;;13.18;4.05;;;;;;;32.13;56.10;100547.66;4916381;28;66284;-38
2021/06/09 09:31:55;;;;;;;;;;;;;;;31.89;58.21;100553.03;4920102;28;68935;-36
2021/06/09 09:34:51;;;;;;;;;;;;;;;31.88;58.58;100550.59;4919850;28;66381;-39
2021/06/09 09:37:27;;;;;;;24.33;3.78;;;;;;;32.02;56.66;100542.00;4919153;28;69959;-37
2021/06/09 09:40:16;;;;;;;16.45;4.38;;;;;;;32.11;57.75;100544.34;4921967;28;65911;-36
2021/06/09 09:42:51;;;;;;;6.43;3.80;;;;;;;31.97;57.57;100511.22;4919724;28;69085;-36
2021/06/09 09:45:28;;;;;;;9.13;4.50;;;;;;;32.15;57.22;100540.94;4920194;28;65953;-36
2021/06/09 09:48:09;;;;;;;9.25;4.32;;;;;;;32.00;58.55;100519.69;4902375;28;69964;-35
2021/06/09 09:50:48;;;;;;;14.18;4.32;;;;;;;32.16;58.90;100553.44;4919068;28;66464;-37
2021/06/09 09:53:26;;;;;;;6.45;3.65;;;;;;;32.17;58.31;100559.69;4916246;28;69279;-37
2021/06/09 09:56:05;;;;;;;13.82;4.15;;;;;;;32.13;58.91;100556.63;4918384;28;65311;-37
2021/06/09 09:59:02;;;;;;;8.57;4.18;;;;;;;31.98;59.55;100538.13;4920534;28;69081;-36
2021/06/09 10:01:38;;;;;;;5.22;4.15;;;;;;;32.17;59.21;100562.41;4934764;28;66095;-35
2021/06/09 10:04:18;;;;;;;8.77;4.13;;;;;;;32.16;59.58;100552.63;4920062;28;69551;-37
2021/06/09 10:06:52;;;;;;;10.45;4.45;;;;;;;32.17;59.62;100556.97;4921500;28;66104;-36
2021/06/09 10:09:27;;;;;;;12.23;4.53;;;;;;;32.19;59.04;100549.44;4916569;28;70014;-36
2021/06/09 10:12:02;;;;;;;12.30;4.50;;;;;;;32.18;59.98;100555.91;4915901;28;66021;-34
2021/06/09 10:14:41;;;;;;;10.52;4.65;;;;;;;31.87;60.23;100510.94;4906854;28;70258;-36
2021/06/09 10:17:25;;;;;;;9.75;4.78;;;;;;;32.10;60.60;100548.97;4918017;28;67314;-35
2021/06/09 10:20:06;;;;;;;6.10;4.07;;;;;;;32.16;60.54;100564.28;4915872;28;70274;-37
2021/06/09 10:22:52;;;;;;;8.50;5.60;;;;;;;32.12;59.70;100579.38;4919204;28;65196;-35
2021/06/09 10:25:24;;;;;;;5.60;5.03;;;;;;;32.13;59.53;100591.91;4903280;28;69253;-37
2021/06/09 10:27:58;;;;;;;8.30;5.13;;;;;;;32.12;59.70;100597.56;4902960;28;65699;-35
2021/06/09 10:30:30;;;;;;;10.73;4.85;;;;;;;32.13;60.49;100607.38;4921160;28;70318;-36
2021/06/09 10:33:03;;;;;;;9.65;5.18;;;;;;;32.15;60.72;100621.50;4920536;28;66109;-37
2021/06/09 10:35:42;;;;;;;8.07;5.78;;;;;;;32.16;60.99;100624.00;4908208;28;70692;-34
2021/06/09 10:38:21;;;;;;;13.82;6.30;;;;;;;32.03;60.40;100606.03;4901634;28;65426;-35
2021/06/09 10:40:54;;;;;;;7.60;5.15;;;;;;;32.13;61.02;100629.06;4921557;28;70023;-35
2021/06/09 10:43:29;;;;;;;10.27;6.00;;;;;;;32.15;60.91;100643.22;4919194;28;66675;-36
2021/06/09 10:46:02;;;;;;;18.67;6.25;;;;;;;32.15;61.17;100644.06;4918709;28;67967;-38
2021/06/09 10:48:35;;;;;;;17.65;6.38;;;;;;;32.03;61.11;100618.78;4915821;28;65355;-36
2021/06/09 10:51:08;;;;;;;11.57;6.10;;;;;;;32.15;60.87;100648.63;4900442;28;70047;-35
2021/06/09 10:53:41;;;;;;;9.43;6.78;;;;;;;32.17;60.86;100651.94;4900839;28;65761;-37
2021/06/09 10:56:17;;;;;;;12.02;6.38;;;;;;;32.21;61.20;100642.28;4918844;28;69280;-35
2021/06/09 10:58:49;;;;;;;7.75;6.50;;;;;;;32.23;61.07;100651.00;4905136;28;65138;-35
2021/06/09 11:01:29;;;;;;;9.38;6.60;;;;;;;32.24;61.01;100652.69;4919447;28;69387;-36
2021/06/09 11:04:03;;;;;;;6.97;6.15;;;;;;;32.29;60.74;100652.81;4917236;28;66443;-35
2021/06/09 11:06:42;;;;;;;7.20;6.50;;;;;;;32.30;61.02;100643.59;4902588;28;68953;-36
2021/06/09 11:09:26;;;;;;;13.60;7.45;;;;;;;32.17;60.99;100613.97;4902614;28;65317;-36
2021/06/09 11:12:19;;;;;;;13.80;8.45;;;;;;;32.29;61.37;100633.81;4899637;28;69927;-36
2021/06/09 11:14:57;;;;;;;24.05;13.52;;;;;;;32.35;61.30;100619.28;4901900;28;65236;-36
2021/06/09 11:17:42;;;;;;;26.10;14.60;;;;;;;32.37;61.60;100627.16;4916563;28;69030;-37
2021/06/09 11:20:38;;;;;;;27.20;14.43;;;;;;;32.33;61.36;100634.97;4920532;28;65264;-35
2021/06/09 11:23:26;;;;;;;26.77;15.50;;;;;;;32.34;60.92;100620.31;4903654;28;70661;-36
2021/06/09 11:25:57;;;;;;;25.88;14.95;;;;;;;32.42;60.55;100627.28;4901289;28;66140;-37
2021/06/09 11:28:32;;;;;;;30.33;13.40;;;;;;;32.36;58.69;100634.50;4919885;28;69914;-39
2021/06/09 11:31:21;;;;;;;18.95;12.52;;;;;;;32.22;56.33;100638.50;4917990;28;65362;-39
2021/06/09 11:34:01;;;;;;;21.92;12.25;;;;;;;32.08;54.85;100645.22;4910205;28;69955;-37
2021/06/09 11:36:38;;;;;;;16.95;12.05;;;;;;;31.96;54.59;100640.63;4918889;28;64933;-36
2021/06/09 11:39:19;;;;;;;17.15;11.35;;;;;;;31.84;54.03;100653.28;4900567;28;69048;-35
2021/06/09 11:41:52;;;;;;;15.23;11.50;;;;;;;31.69;53.20;100639.34;4917652;28;65969;-35
2021/06/09 11:44:34;;;;;;;15.48;11.10;;;;;;;31.63;53.66;100630.25;4918219;28;70178;-39
2021/06/09 11:47:23;;;;;;;15.43;10.43;;;;;;;31.44;51.57;100626.75;4916961;28;66910;-39
2021/06/09 11:50:15;;;;;;;15.50;10.70;;;;;;;31.47;51.04;100637.13;4901913;28;70050;-37
2021/06/09 11:53:14;;;;;;;11.98;9.80;;;;;;;31.40;49.84;100652.69;4915160;28;65236;-37
2021/06/09 11:56:12;;;;;;;11.50;9.45;;;;;;;31.35;49.50;100655.22;4918770;28;70378;-39
2021/06/09 11:58:48;;;;;;;11.45;9.32;;;;;;;31.19;49.61;100628.75;4916872;28;65666;-35
2021/06/09 12:01:24;;;;;;;14.82;9.10;;;;;;;31.32;49.76;100655.69;4919521;28;70133;-35